sensor_id;sensor_type;location;lat;lon;timestamp;pressure;altitude;pressure_sealevel;temperature;humidity
55759;BME280;41678;52.126;20.664;2023-02-17T00:01:59;100632.53;;;2.62;98.01
55759;BME280;41678;52.126;20.664;2023-02-17T00:07:19;100626.41;;;2.60;97.62
55759;BME280;41678;52.126;20.664;2023-02-17T00:12:39;100626.41;;;2.60;97.93
55759;BME280;41678;52.126;20.664;2023-02-17T00:17:59;100618.59;;;2.58;97.92
55759;BME280;41678;52.126;20.664;2023-02-17T00:23:18;100613.28;;;2.55;98.20
55759;BME280;41678;52.126;20.664;2023-02-17T00:28:38;100612.44;;;2.56;97.88
55759;BME280;41678;52.126;20.664;2023-02-17T00:33:58;100613.28;;;2.55;98.10
55759;BME280;41678;52.126;20.664;2023-02-17T00:39:19;100601.13;;;2.54;98.12
55759;BME280;41678;52.126;20.664;2023-02-17T00:44:41;100602.88;;;2.55;98.55
55759;BME280;41678;52.126;20.664;2023-02-17T00:50:01;100593.25;;;2.51;98.57
55759;BME280;41678;52.126;20.664;2023-02-17T00:55:20;100595.00;;;2.52;98.44
55759;BME280;41678;52.126;20.664;2023-02-17T01:00:41;100586.31;;;2.50;98.41
55759;BME280;41678;52.126;20.664;2023-02-17T01:06:05;100582.06;;;2.53;97.91
55759;BME280;41678;52.126;20.664;2023-02-17T01:11:28;100582.94;;;2.54;98.22
55759;BME280;41678;52.126;20.664;2023-02-17T01:16:50;100564.66;;;2.51;98.55
55759;BME280;41678;52.126;20.664;2023-02-17T01:22:10;100563.81;;;2.50;98.22
55759;BME280;41678;52.126;20.664;2023-02-17T01:27:29;100559.47;;;2.51;98.14
55759;BME280;41678;52.126;20.664;2023-02-17T01:32:49;100550.81;;;2.52;98.22
55759;BME280;41678;52.126;20.664;2023-02-17T01:38:08;100548.22;;;2.52;98.24
55759;BME280;41678;52.126;20.664;2023-02-17T01:43:28;100556.09;;;2.55;98.09
55759;BME280;41678;52.126;20.664;2023-02-17T01:48:49;100544.78;;;2.53;98.43
55759;BME280;41678;52.126;20.664;2023-02-17T01:54:16;100544.91;;;2.58;98.17
55759;BME280;41678;52.126;20.664;2023-02-17T01:59:39;100545.81;;;2.58;98.08
55759;BME280;41678;52.126;20.664;2023-02-17T02:04:59;100538.91;;;2.60;98.41
55759;BME280;41678;52.126;20.664;2023-02-17T02:10:19;100529.38;;;2.61;98.31
55759;BME280;41678;52.126;20.664;2023-02-17T02:15:52;100537.44;;;2.72;97.88
55759;BME280;41678;52.126;20.664;2023-02-17T02:39:02;100513.31;;;2.77;98.39
55759;BME280;41678;52.126;20.664;2023-02-17T02:44:24;100510.88;;;2.83;98.93
55759;BME280;41678;52.126;20.664;2023-02-17T02:49:44;100518.78;;;2.88;98.51
55759;BME280;41678;52.126;20.664;2023-02-17T02:55:14;100518.84;;;2.91;98.76
55759;BME280;41678;52.126;20.664;2023-02-17T03:00:40;100502.34;;;2.89;98.73
55759;BME280;41678;52.126;20.664;2023-02-17T03:11:26;100504.22;;;2.96;98.54
55759;BME280;41678;52.126;20.664;2023-02-17T03:16:54;100515.53;;;2.98;98.65
55759;BME280;41678;52.126;20.664;2023-02-17T03:22:20;100512.09;;;3.00;99.13
55759;BME280;41678;52.126;20.664;2023-02-17T03:27:40;100508.66;;;3.01;99.44
55759;BME280;41678;52.126;20.664;2023-02-17T03:33:01;100504.44;;;3.06;99.11
55759;BME280;41678;52.126;20.664;2023-02-17T03:38:20;100515.75;;;3.08;98.88
55759;BME280;41678;52.126;20.664;2023-02-17T03:43:40;100497.56;;;3.08;99.32
55759;BME280;41678;52.126;20.664;2023-02-17T03:48:59;100501.97;;;3.12;99.30
55759;BME280;41678;52.126;20.664;2023-02-17T03:54:19;100510.69;;;3.14;99.50
55759;BME280;41678;52.126;20.664;2023-02-17T03:59:41;100506.44;;;3.18;99.12
55759;BME280;41678;52.126;20.664;2023-02-17T04:05:00;100489.03;;;3.15;99.84
55759;BME280;41678;52.126;20.664;2023-02-17T04:10:20;100491.63;;;3.15;100.00
55759;BME280;41678;52.126;20.664;2023-02-17T04:15:39;100499.66;;;3.26;99.92
55759;BME280;41678;52.126;20.664;2023-02-17T04:20:59;100504.81;;;3.23;99.53
55759;BME280;41678;52.126;20.664;2023-02-17T04:26:18;100465.59;;;3.15;99.60
55759;BME280;41678;52.126;20.664;2023-02-17T04:31:38;100479.63;;;3.20;99.68
55759;BME280;41678;52.126;20.664;2023-02-17T04:36:57;100477.91;;;3.22;99.82
55759;BME280;41678;52.126;20.664;2023-02-17T04:42:17;100486.59;;;3.23;99.92
55759;BME280;41678;52.126;20.664;2023-02-17T04:47:36;100457.03;;;3.19;99.84
55759;BME280;41678;52.126;20.664;2023-02-17T04:52:56;100447.50;;;3.20;99.69
55759;BME280;41678;52.126;20.664;2023-02-17T04:58:15;100443.19;;;3.22;100.00
55759;BME280;41678;52.126;20.664;2023-02-17T05:03:35;100450.19;;;3.24;100.00
55759;BME280;41678;52.126;20.664;2023-02-17T05:08:54;100438.00;;;3.22;99.95
55759;BME280;41678;52.126;20.664;2023-02-17T05:14:14;100444.03;;;3.21;100.00
55759;BME280;41678;52.126;20.664;2023-02-17T05:19:34;100432.84;;;3.23;100.00
55759;BME280;41678;52.126;20.664;2023-02-17T05:24:54;100429.31;;;3.21;100.00
55759;BME280;41678;52.126;20.664;2023-02-17T05:30:14;100430.19;;;3.22;100.00
55759;BME280;41678;52.126;20.664;2023-02-17T05:35:34;100427.63;;;3.23;100.00
55759;BME280;41678;52.126;20.664;2023-02-17T05:40:54;100419.81;;;3.23;100.00
55759;BME280;41678;52.126;20.664;2023-02-17T05:46:13;100427.63;;;3.23;100.00
55759;BME280;41678;52.126;20.664;2023-02-17T05:51:33;100425.03;;;3.23;100.00
55759;BME280;41678;52.126;20.664;2023-02-17T05:56:53;100415.53;;;3.25;100.00
55759;BME280;41678;52.126;20.664;2023-02-17T06:02:13;100413.72;;;3.21;100.00
55759;BME280;41678;52.126;20.664;2023-02-17T06:07:33;100411.00;;;3.17;100.00
55759;BME280;41678;52.126;20.664;2023-02-17T06:12:52;100419.72;;;3.19;100.00
55759;BME280;41678;52.126;20.664;2023-02-17T06:18:12;100419.81;;;3.23;100.00
55759;BME280;41678;52.126;20.664;2023-02-17T06:23:32;100424.22;;;3.28;100.00
55759;BME280;41678;52.126;20.664;2023-02-17T06:28:51;100410.22;;;3.21;100.00
55759;BME280;41678;52.126;20.664;2023-02-17T06:34:11;100416.28;;;3.20;100.00
55759;BME280;41678;52.126;20.664;2023-02-17T06:39:31;100410.22;;;3.19;100.00
55759;BME280;41678;52.126;20.664;2023-02-17T06:44:51;100396.25;;;3.17;100.00
55759;BME280;41678;52.126;20.664;2023-02-17T06:50:10;100394.59;;;3.19;100.00
55759;BME280;41678;52.126;20.664;2023-02-17T06:55:31;100398.16;;;3.24;100.00
55759;BME280;41678;52.126;20.664;2023-02-17T07:00:53;100407.78;;;3.29;100.00
55759;BME280;41678;52.126;20.664;2023-02-17T07:06:12;100394.75;;;3.27;100.00
55759;BME280;41678;52.126;20.664;2023-02-17T07:11:32;100383.56;;;3.33;100.00
55759;BME280;41678;52.126;20.664;2023-02-17T07:16:52;100382.75;;;3.34;100.00
55759;BME280;41678;52.126;20.664;2023-02-17T07:22:11;100388.00;;;3.37;100.00
55759;BME280;41678;52.126;20.664;2023-02-17T07:27:34;100388.94;;;3.42;100.00
55759;BME280;41678;52.126;20.664;2023-02-17T07:32:54;100376.88;;;3.47;100.00
55759;BME280;41678;52.126;20.664;2023-02-17T07:38:14;100383.19;;;3.59;100.00
55759;BME280;41678;52.126;20.664;2023-02-17T07:43:33;100378.09;;;3.65;100.00
55759;BME280;41678;52.126;20.664;2023-02-17T07:48:56;100375.50;;;3.66;100.00
55759;BME280;41678;52.126;20.664;2023-02-17T07:54:16;100374.03;;;3.81;100.00
55759;BME280;41678;52.126;20.664;2023-02-17T07:59:37;100360.91;;;3.76;100.00
55759;BME280;41678;52.126;20.664;2023-02-17T08:04:56;100359.31;;;3.81;100.00
55759;BME280;41678;52.126;20.664;2023-02-17T08:10:16;100357.72;;;3.93;100.00
55759;BME280;41678;52.126;20.664;2023-02-17T08:15:54;100345.56;;;3.92;100.00
55759;BME280;41678;52.126;20.664;2023-02-17T08:21:13;100345.72;;;4.01;100.00
55759;BME280;41678;52.126;20.664;2023-02-17T08:26:33;100336.22;;;4.05;100.00
55759;BME280;41678;52.126;20.664;2023-02-17T08:31:52;100343.19;;;4.07;100.00
55759;BME280;41678;52.126;20.664;2023-02-17T08:37:12;100330.31;;;4.17;100.00
55759;BME280;41678;52.126;20.664;2023-02-17T08:42:31;100333.75;;;4.13;100.00
55759;BME280;41678;52.126;20.664;2023-02-17T08:47:51;100333.94;;;4.25;100.00
55759;BME280;41678;52.126;20.664;2023-02-17T08:53:10;100337.44;;;4.27;100.00
55759;BME280;41678;52.126;20.664;2023-02-17T08:58:30;100334.03;;;4.31;100.00
55759;BME280;41678;52.126;20.664;2023-02-17T09:03:51;100333.31;;;4.42;100.00
55759;BME280;41678;52.126;20.664;2023-02-17T09:09:14;100337.75;;;4.49;100.00
55759;BME280;41678;52.126;20.664;2023-02-17T09:14:33;100329.06;;;4.50;100.00
55759;BME280;41678;52.126;20.664;2023-02-17T09:19:53;100326.47;;;4.50;100.00
55759;BME280;41678;52.126;20.664;2023-02-17T09:25:13;100318.84;;;4.64;100.00
55759;BME280;41678;52.126;20.664;2023-02-17T09:30:32;100317.09;;;4.63;100.00
55759;BME280;41678;52.126;20.664;2023-02-17T09:35:52;100309.41;;;4.75;100.00
55759;BME280;41678;52.126;20.664;2023-02-17T09:41:22;100302.53;;;4.82;100.00
55759;BME280;41678;52.126;20.664;2023-02-17T09:46:48;100297.31;;;4.82;100.00
55759;BME280;41678;52.126;20.664;2023-02-17T09:52:56;100291.31;;;4.89;100.00
55759;BME280;41678;52.126;20.664;2023-02-17T09:58:20;100285.22;;;4.87;100.00
55759;BME280;41678;52.126;20.664;2023-02-17T10:03:45;100270.44;;;4.89;100.00
55759;BME280;41678;52.126;20.664;2023-02-17T10:09:21;100279.16;;;4.91;100.00
55759;BME280;41678;52.126;20.664;2023-02-17T10:14:55;100273.97;;;4.93;100.00
55759;BME280;41678;52.126;20.664;2023-02-17T10:20:23;100277.47;;;4.95;100.00
55759;BME280;41678;52.126;20.664;2023-02-17T10:37:14;100247.97;;;5.02;100.00
55759;BME280;41678;52.126;20.664;2023-02-17T10:42:38;100230.63;;;5.06;100.00
55759;BME280;41678;52.126;20.664;2023-02-17T10:48:05;100225.41;;;5.09;100.00
55759;BME280;41678;52.126;20.664;2023-02-17T10:53:37;100215.88;;;5.09;100.00
55759;BME280;41678;52.126;20.664;2023-02-17T11:10:30;100175.09;;;5.22;100.00
55759;BME280;41678;52.126;20.664;2023-02-17T11:15:51;100153.31;;;5.20;100.00
55759;BME280;41678;52.126;20.664;2023-02-17T11:21:10;100146.41;;;5.29;100.00
55759;BME280;41678;52.126;20.664;2023-02-17T11:26:33;100138.56;;;5.29;100.00
55759;BME280;41678;52.126;20.664;2023-02-17T11:31:57;100126.44;;;5.35;100.00
55759;BME280;41678;52.126;20.664;2023-02-17T11:37:22;100105.56;;;5.34;100.00
55759;BME280;41678;52.126;20.664;2023-02-17T11:42:42;100102.13;;;5.39;100.00
55759;BME280;41678;52.126;20.664;2023-02-17T11:48:14;100093.47;;;5.50;100.00
55759;BME280;41678;52.126;20.664;2023-02-17T12:05:53;100052.56;;;5.53;100.00
55759;BME280;41678;52.126;20.664;2023-02-17T12:41:16;99969.09;;;5.83;100.00
55759;BME280;41678;52.126;20.664;2023-02-17T12:52:23;99943.00;;;5.89;100.00
55759;BME280;41678;52.126;20.664;2023-02-17T12:57:50;99936.06;;;6.05;100.00
55759;BME280;41678;52.126;20.664;2023-02-17T13:03:14;99941.31;;;6.02;100.00
55759;BME280;41678;52.126;20.664;2023-02-17T13:08:42;99922.13;;;6.06;100.00
55759;BME280;41678;52.126;20.664;2023-02-17T13:19:39;99886.41;;;6.02;100.00
55759;BME280;41678;52.126;20.664;2023-02-17T13:25:00;99889.03;;;6.05;100.00
55759;BME280;41678;52.126;20.664;2023-02-17T13:35:39;99882.06;;;6.09;100.00
55759;BME280;41678;52.126;20.664;2023-02-17T13:41:01;99882.06;;;6.12;100.00
55759;BME280;41678;52.126;20.664;2023-02-17T13:46:25;99858.56;;;6.15;100.00
55759;BME280;41678;52.126;20.664;2023-02-17T13:51:44;99855.06;;;6.18;100.00
55759;BME280;41678;52.126;20.664;2023-02-17T13:57:04;99854.19;;;6.16;100.00
55759;BME280;41678;52.126;20.664;2023-02-17T14:02:24;99843.75;;;6.17;100.00
55759;BME280;41678;52.126;20.664;2023-02-17T14:07:45;99834.13;;;6.18;100.00
55759;BME280;41678;52.126;20.664;2023-02-17T14:13:07;99831.53;;;6.22;100.00
55759;BME280;41678;52.126;20.664;2023-02-17T14:18:30;99793.19;;;6.18;100.00
55759;BME280;41678;52.126;20.664;2023-02-17T14:23:54;99794.06;;;6.25;100.00
55759;BME280;41678;52.126;20.664;2023-02-17T14:29:14;99772.25;;;6.20;100.00
55759;BME280;41678;52.126;20.664;2023-02-17T14:34:35;99747.00;;;6.25;100.00
55759;BME280;41678;52.126;20.664;2023-02-17T14:39:54;99752.22;;;6.28;100.00
55759;BME280;41678;52.126;20.664;2023-02-17T14:45:15;99738.25;;;6.29;100.00
55759;BME280;41678;52.126;20.664;2023-02-17T14:50:36;99720.84;;;6.25;100.00
55759;BME280;41678;52.126;20.664;2023-02-17T14:56:06;99722.56;;;6.29;100.00
55759;BME280;41678;52.126;20.664;2023-02-17T15:01:27;99700.78;;;6.26;100.00
55759;BME280;41678;52.126;20.664;2023-02-17T15:06:48;99699.91;;;6.28;100.00
55759;BME280;41678;52.126;20.664;2023-02-17T15:12:17;99687.72;;;6.27;100.00
55759;BME280;41678;52.126;20.664;2023-02-17T15:17:38;99682.47;;;6.29;100.00
55759;BME280;41678;52.126;20.664;2023-02-17T15:22:57;99672.91;;;6.26;100.00
55759;BME280;41678;52.126;20.664;2023-02-17T15:28:18;99660.69;;;6.27;100.00
55759;BME280;41678;52.126;20.664;2023-02-17T15:33:38;99639.78;;;6.28;100.00
55759;BME280;41678;52.126;20.664;2023-02-17T15:38:58;99632.84;;;6.24;100.00
55759;BME280;41678;52.126;20.664;2023-02-17T15:44:20;99622.34;;;6.30;100.00
55759;BME280;41678;52.126;20.664;2023-02-17T15:49:41;99610.16;;;6.31;100.00
55759;BME280;41678;52.126;20.664;2023-02-17T15:55:01;99585.75;;;6.29;100.00
55759;BME280;41678;52.126;20.664;2023-02-17T16:00:23;99584.84;;;6.34;100.00
55759;BME280;41678;52.126;20.664;2023-02-17T16:05:44;99583.13;;;6.29;100.00
55759;BME280;41678;52.126;20.664;2023-02-17T16:11:04;99570.88;;;6.35;100.00
55759;BME280;41678;52.126;20.664;2023-02-17T16:16:27;99549.97;;;6.35;100.00
55759;BME280;41678;52.126;20.664;2023-02-17T16:21:47;99539.50;;;6.35;100.00
55759;BME280;41678;52.126;20.664;2023-02-17T16:27:09;99533.41;;;6.38;100.00
55759;BME280;41678;52.126;20.664;2023-02-17T16:32:29;99538.66;;;6.33;100.00
55759;BME280;41678;52.126;20.664;2023-02-17T16:38:01;99534.28;;;6.35;100.00
55759;BME280;41678;52.126;20.664;2023-02-17T16:43:24;99522.09;;;6.36;100.00
55759;BME280;41678;52.126;20.664;2023-02-17T16:48:49;99495.94;;;6.37;100.00
55759;BME280;41678;52.126;20.664;2023-02-17T16:54:10;99495.91;;;6.44;100.00
55759;BME280;41678;52.126;20.664;2023-02-17T16:59:30;99477.63;;;6.41;100.00
55759;BME280;41678;52.126;20.664;2023-02-17T17:04:49;99476.72;;;6.45;100.00
55759;BME280;41678;52.126;20.664;2023-02-17T17:10:15;99465.38;;;6.44;100.00
55759;BME280;41678;52.126;20.664;2023-02-17T17:15:37;99453.16;;;6.43;100.00
55759;BME280;41678;52.126;20.664;2023-02-17T17:20:56;99443.59;;;6.45;100.00
55759;BME280;41678;52.126;20.664;2023-02-17T17:26:37;99434.84;;;6.49;100.00
55759;BME280;41678;52.126;20.664;2023-02-17T17:31:58;99400.84;;;6.49;100.00
55759;BME280;41678;52.126;20.664;2023-02-17T17:37:17;99399.06;;;6.50;100.00
55759;BME280;41678;52.126;20.664;2023-02-17T17:42:37;99372.94;;;6.48;100.00
55759;BME280;41678;52.126;20.664;2023-02-17T17:47:57;99380.81;;;6.47;100.00
55759;BME280;41678;52.126;20.664;2023-02-17T17:53:17;99375.53;;;6.50;100.00
55759;BME280;41678;52.126;20.664;2023-02-17T17:58:36;99366.78;;;6.54;100.00
55759;BME280;41678;52.126;20.664;2023-02-17T18:03:57;99350.22;;;6.52;100.00
55759;BME280;41678;52.126;20.664;2023-02-17T18:09:20;99335.38;;;6.57;100.00
55759;BME280;41678;52.126;20.664;2023-02-17T18:14:42;99339.63;;;6.66;100.00
55759;BME280;41678;52.126;20.664;2023-02-17T18:20:03;99334.41;;;6.66;100.00
55759;BME280;41678;52.126;20.664;2023-02-17T18:25:23;99309.19;;;6.62;100.00
55759;BME280;41678;52.126;20.664;2023-02-17T18:30:43;99312.59;;;6.69;100.00
55759;BME280;41678;52.126;20.664;2023-02-17T18:36:15;99310.81;;;6.69;100.00
55759;BME280;41678;52.126;20.664;2023-02-17T18:41:35;99302.84;;;6.82;100.00
55759;BME280;41678;52.126;20.664;2023-02-17T18:46:55;99308.91;;;6.82;100.00
55759;BME280;41678;52.126;20.664;2023-02-17T18:52:14;99293.22;;;6.84;100.00
55759;BME280;41678;52.126;20.664;2023-02-17T18:57:34;99289.75;;;6.83;100.00
55759;BME280;41678;52.126;20.664;2023-02-17T19:02:54;99289.72;;;6.86;100.00
55759;BME280;41678;52.126;20.664;2023-02-17T19:08:13;99292.22;;;6.94;100.00
55759;BME280;41678;52.126;20.664;2023-02-17T19:13:34;99286.06;;;6.97;100.00
55759;BME280;41678;52.126;20.664;2023-02-17T19:18:54;99291.19;;;7.07;100.00
55759;BME280;41678;52.126;20.664;2023-02-17T19:24:14;99272.88;;;7.07;100.00
55759;BME280;41678;52.126;20.664;2023-02-17T19:29:35;99272.75;;;7.15;100.00
55759;BME280;41678;52.126;20.664;2023-02-17T19:34:55;99263.97;;;7.21;100.00
55759;BME280;41678;52.126;20.664;2023-02-17T19:40:14;99268.09;;;7.36;100.00
55759;BME280;41678;52.126;20.664;2023-02-17T19:45:34;99271.38;;;7.49;100.00
55759;BME280;41678;52.126;20.664;2023-02-17T19:51:00;99270.47;;;7.53;100.00
55759;BME280;41678;52.126;20.664;2023-02-17T19:56:22;99253.78;;;7.59;100.00
55759;BME280;41678;52.126;20.664;2023-02-17T20:01:42;99251.78;;;7.73;100.00
55759;BME280;41678;52.126;20.664;2023-02-17T20:07:02;99250.81;;;7.80;100.00
55759;BME280;41678;52.126;20.664;2023-02-17T20:12:22;99234.94;;;7.90;100.00
55759;BME280;41678;52.126;20.664;2023-02-17T20:17:41;99244.47;;;7.94;100.00
55759;BME280;41678;52.126;20.664;2023-02-17T20:23:01;99236.41;;;8.06;100.00
55759;BME280;41678;52.126;20.664;2023-02-17T20:28:22;99239.75;;;8.13;100.00
55759;BME280;41678;52.126;20.664;2023-02-17T20:33:42;99238.78;;;8.19;100.00
55759;BME280;41678;52.126;20.664;2023-02-17T20:39:02;99230.78;;;8.25;100.00
55759;BME280;41678;52.126;20.664;2023-02-17T20:44:22;99242.06;;;8.30;100.00
55759;BME280;41678;52.126;20.664;2023-02-17T20:49:44;99238.50;;;8.34;100.00
55759;BME280;41678;52.126;20.664;2023-02-17T20:55:04;99230.56;;;8.38;100.00
55759;BME280;41678;52.126;20.664;2023-02-17T21:00:25;99227.75;;;8.47;100.00
55759;BME280;41678;52.126;20.664;2023-02-17T21:05:45;99216.41;;;8.45;100.00
55759;BME280;41678;52.126;20.664;2023-02-17T21:11:05;99213.72;;;8.49;100.00
55759;BME280;41678;52.126;20.664;2023-02-17T21:16:27;99216.34;;;8.48;100.00
55759;BME280;41678;52.126;20.664;2023-02-17T21:21:49;99215.38;;;8.55;100.00
55759;BME280;41678;52.126;20.664;2023-02-17T21:27:08;99193.50;;;8.55;100.00
55759;BME280;41678;52.126;20.664;2023-02-17T21:32:27;99233.69;;;8.57;100.00
55759;BME280;41678;52.126;20.664;2023-02-17T21:37:47;99212.81;;;8.52;100.00
55759;BME280;41678;52.126;20.664;2023-02-17T21:43:09;99217.22;;;8.48;100.00
55759;BME280;41678;52.126;20.664;2023-02-17T21:48:49;99214.69;;;8.44;100.00
55759;BME280;41678;52.126;20.664;2023-02-17T21:54:09;99230.47;;;8.42;100.00
55759;BME280;41678;52.126;20.664;2023-02-17T21:59:29;99221.81;;;8.39;100.00
55759;BME280;41678;52.126;20.664;2023-02-17T22:04:48;99221.00;;;8.33;100.00
55759;BME280;41678;52.126;20.664;2023-02-17T22:10:08;99227.22;;;8.29;100.00
55759;BME280;41678;52.126;20.664;2023-02-17T22:15:28;99227.44;;;8.18;100.00
55759;BME280;41678;52.126;20.664;2023-02-17T22:20:47;99210.13;;;8.08;100.00
55759;BME280;41678;52.126;20.664;2023-02-17T22:26:09;99223.28;;;8.06;100.00
55759;BME280;41678;52.126;20.664;2023-02-17T22:31:30;99210.22;;;8.03;100.00
55759;BME280;41678;52.126;20.664;2023-02-17T22:36:49;99210.34;;;7.96;100.00
55759;BME280;41678;52.126;20.664;2023-02-17T22:42:09;99226.13;;;7.92;100.00
55759;BME280;41678;52.126;20.664;2023-02-17T22:47:28;99225.50;;;7.79;100.00
55759;BME280;41678;52.126;20.664;2023-02-17T22:52:48;99234.25;;;7.77;100.00
55759;BME280;41678;52.126;20.664;2023-02-17T22:58:07;99241.34;;;7.70;100.00
55759;BME280;41678;52.126;20.664;2023-02-17T23:03:27;99247.59;;;7.63;100.00
55759;BME280;41678;52.126;20.664;2023-02-17T23:08:48;99254.66;;;7.58;100.00
55759;BME280;41678;52.126;20.664;2023-02-17T23:14:08;99270.38;;;7.58;100.00
55759;BME280;41678;52.126;20.664;2023-02-17T23:19:29;99259.06;;;7.56;100.00
55759;BME280;41678;52.126;20.664;2023-02-17T23:24:48;99256.47;;;7.54;100.00
55759;BME280;41678;52.126;20.664;2023-02-17T23:30:10;99264.47;;;7.46;100.00
55759;BME280;41678;52.126;20.664;2023-02-17T23:35:42;99271.69;;;7.29;99.42
55759;BME280;41678;52.126;20.664;2023-02-17T23:41:05;99277.94;;;7.18;97.84
55759;BME280;41678;52.126;20.664;2023-02-17T23:46:27;99286.84;;;7.06;96.69
55759;BME280;41678;52.126;20.664;2023-02-17T23:51:46;99311.44;;;6.93;95.81
55759;BME280;41678;52.126;20.664;2023-02-17T23:57:06;99308.97;;;6.79;94.82
